Time;durP1;ratioP1;P1;durP2;ratioP2;P2;SDS_P1;SDS_P2;PMS_P1;PMS_P2;Temp;Humidity;BMP_temperature;BMP_pressure;BME280_temperature;BME280_humidity;BME280_pressure;Samples;Min_cycle;Max_cycle;Signal;HPM_P1;HPM_P2
2021/12/27 00:01:08;;;;;;;16.10;13.23;;;12.70;99.90;;;;;;5037333;28;20386;-77
2021/12/27 00:03:35;;;;;;;16.73;13.23;;;12.80;99.90;;;;;;5036980;28;20029;-67
2021/12/27 00:06:01;;;;;;;19.15;13.23;;;12.80;99.90;;;;;;5018974;28;20116;-69
2021/12/27 00:08:27;;;;;;;17.30;13.30;;;12.80;99.90;;;;;;5036384;28;20447;-69
2021/12/27 00:10:53;;;;;;;15.00;12.63;;;12.80;99.90;;;;;;5037340;28;20113;-78
2021/12/27 00:13:19;;;;;;;16.05;13.13;;;12.70;99.90;;;;;;5038799;28;20030;-77
2021/12/27 00:15:45;;;;;;;15.50;13.32;;;12.70;99.90;;;;;;5024827;28;20415;-78
2021/12/27 00:18:11;;;;;;;16.77;13.27;;;12.60;99.90;;;;;;5038699;28;20025;-79
2021/12/27 00:20:37;;;;;;;16.42;13.07;;;12.60;99.90;;;;;;5038310;28;20025;-78
2021/12/27 00:23:04;;;;;;;16.75;13.10;;;12.60;99.90;;;;;;5037874;28;20167;-80
2021/12/27 00:25:30;;;;;;;15.48;13.63;;;12.50;99.90;;;;;;5036314;28;20136;-81
2021/12/27 00:27:56;;;;;;;16.23;13.45;;;12.50;99.90;;;;;;5035950;28;20463;-64
2021/12/27 00:30:23;;;;;;;15.82;13.50;;;12.50;99.90;;;;;;5018253;28;20076;-65
2021/12/27 00:32:50;;;;;;;20.27;14.07;;;12.40;99.90;;;;;;5036150;28;20479;-80
2021/12/27 00:35:18;;;;;;;16.35;13.68;;;12.40;99.90;;;;;;5039068;28;20056;-81
2021/12/27 00:37:44;;;;;;;16.77;13.32;;;12.30;99.90;;;;;;5045634;28;20052;-75
2021/12/27 00:40:12;;;;;;;18.08;14.25;;;12.30;99.90;;;;;;5043676;28;20037;-80
2021/12/27 00:42:38;;;;;;;14.43;12.52;;;12.30;99.90;;;;;;5038306;28;20049;-65
2021/12/27 00:45:05;;;;;;;16.13;12.73;;;12.30;99.90;;;;;;5035847;28;20496;-68
2021/12/27 00:47:31;;;;;;;17.98;13.65;;;12.30;99.90;;;;;;5035772;28;20048;-65
2021/12/27 00:49:58;;;;;;;15.85;13.25;;;12.40;99.90;;;;;;5035401;28;20491;-66
2021/12/27 00:52:24;;;;;;;15.57;12.75;;;12.50;99.90;;;;;;5035688;28;20028;-64
2021/12/27 00:54:50;;;;;;;17.92;14.23;;;12.50;99.90;;;;;;5035500;28;20037;-74
2021/12/27 00:57:15;;;;;;;16.35;13.07;;;12.60;99.90;;;;;;5035527;28;20041;-82
2021/12/27 00:59:41;;;;;;;14.88;12.73;;;12.60;99.90;;;;;;5036433;28;20115;-77
2021/12/27 01:02:07;;;;;;;16.48;12.38;;;12.60;99.90;;;;;;5036731;28;20022;-68
2021/12/27 01:04:32;;;;;;;13.43;11.38;;;12.60;99.90;;;;;;5017543;28;20449;-66
2021/12/27 01:06:58;;;;;;;18.13;12.85;;;12.70;99.90;;;;;;5035415;28;20490;-66
2021/12/27 01:09:39;;;;;;;16.05;12.50;;;12.60;99.90;;;;;;5035578;28;20028;-65
2021/12/27 01:15:05;;;;;;;19.88;12.57;;;12.60;99.90;;;;;;5035383;28;20018;-76
2021/12/27 01:17:29;;;;;;;15.55;12.95;;;12.60;99.90;;;;;;5035027;28;20120;-65
2021/12/27 01:19:55;;;;;;;15.70;13.98;;;12.60;99.90;;;;;;5035133;28;20013;-67
2021/12/27 01:22:21;;;;;;;16.80;12.93;;;12.60;99.90;;;;;;5035235;28;20029;-73
2021/12/27 01:24:47;;;;;;;17.17;13.63;;;12.50;99.90;;;;;;5035373;28;20068;-77
2021/12/27 01:27:12;;;;;;;16.67;13.48;;;12.50;99.90;;;;;;5035179;28;20029;-65
2021/12/27 01:29:38;;;;;;;18.02;14.27;;;12.50;99.90;;;;;;5034865;28;20485;-65
2021/12/27 01:32:04;;;;;;;17.60;14.52;;;12.50;99.90;;;;;;5034656;28;20434;-65
2021/12/27 01:34:32;;;;;;;18.15;14.70;;;12.50;99.90;;;;;;5034716;28;20099;-66
2021/12/27 01:36:57;;;;;;;16.95;13.43;;;12.50;99.90;;;;;;5034310;28;20045;-65
2021/12/27 01:39:24;;;;;;;16.48;14.15;;;12.50;99.90;;;;;;5034830;28;20426;-66
2021/12/27 01:41:50;;;;;;;17.58;14.48;;;12.50;99.90;;;;;;5034806;28;20021;-78
2021/12/27 01:44:16;;;;;;;23.48;17.88;;;12.40;99.90;;;;;;5034852;28;20075;-69
2021/12/27 01:46:42;;;;;;;17.73;14.30;;;12.40;99.90;;;;;;5034781;28;20104;-66
2021/12/27 01:49:08;;;;;;;16.52;14.40;;;12.50;99.90;;;;;;5034971;28;20033;-70
2021/12/27 01:51:38;;;;;;;20.25;15.38;;;12.50;99.90;;;;;;5034303;28;20045;-68
2021/12/27 01:54:04;;;;;;;17.80;14.43;;;12.40;99.90;;;;;;5034910;28;20025;-77
2021/12/27 01:56:32;;;;;;;17.65;15.25;;;12.30;99.90;;;;;;5034676;28;20033;-77
2021/12/27 01:58:58;;;;;;;16.65;14.85;;;12.30;99.90;;;;;;5017353;28;20081;-77
2021/12/27 02:01:25;;;;;;;17.98;15.95;;;12.20;99.90;;;;;;5034780;28;20553;-74
2021/12/27 02:03:53;;;;;;;18.85;15.25;;;12.20;99.90;;;;;;5017134;28;20029;-69
2021/12/27 02:06:20;;;;;;;18.25;15.38;;;12.20;99.90;;;;;;5016602;28;20033;-64
2021/12/27 02:08:47;;;;;;;16.25;14.40;;;12.20;99.90;;;;;;5034304;28;20537;-64
2021/12/27 02:11:16;;;;;;;15.57;13.75;;;12.20;99.90;;;;;;5034228;28;20469;-68
2021/12/27 02:13:44;;;;;;;15.55;13.32;;;12.20;99.90;;;;;;5034202;28;20044;-64
2021/12/27 02:16:21;;;;;;;15.73;13.93;;;12.20;99.90;;;;;;5033836;28;20471;-64
2021/12/27 02:18:49;;;;;;;16.50;13.75;;;12.20;99.90;;;;;;5033772;28;20040;-64
2021/12/27 02:21:17;;;;;;;15.30;13.63;;;12.20;99.90;;;;;;5034017;28;20025;-65
2021/12/27 02:23:43;;;;;;;15.25;12.75;;;12.20;99.90;;;;;;5034139;28;20026;-65
2021/12/27 02:26:09;;;;;;;15.77;12.95;;;12.20;99.90;;;;;;5033775;28;20051;-66
2021/12/27 02:28:36;;;;;;;16.45;13.70;;;12.20;99.90;;;;;;5033608;28;20539;-65
2021/12/27 02:31:03;;;;;;;17.02;13.40;;;12.20;99.90;;;;;;5033781;28;20036;-66
2021/12/27 02:33:29;;;;;;;16.00;13.43;;;12.10;99.90;;;;;;5033899;28;20044;-66
2021/12/27 02:35:57;;;;;;;15.07;13.00;;;12.10;99.90;;;;;;5033876;28;20494;-65
2021/12/27 02:38:31;;;;;;;17.63;13.65;;;12.00;99.90;;;;;;5033732;28;20499;-64
2021/12/27 02:40:59;;;;;;;15.77;13.55;;;11.90;99.90;;;;;;5033601;28;20025;-64
2021/12/27 02:43:27;;;;;;;14.55;12.80;;;11.90;99.90;;;;;;5033908;28;20041;-65
2021/12/27 02:46:02;;;;;;;14.88;13.13;;;11.80;99.90;;;;;;5033616;28;20101;-65
2021/12/27 02:48:33;;;;;;;15.80;14.10;;;11.80;99.90;;;;;;5033933;28;20032;-65
2021/12/27 02:50:59;;;;;;;15.32;13.68;;;11.70;99.90;;;;;;5033404;28;20056;-64
2021/12/27 02:53:25;;;;;;;17.65;14.65;;;11.60;99.90;;;;;;5033187;28;20076;-64
2021/12/27 02:55:53;;;;;;;16.23;13.73;;;11.50;99.90;;;;;;5033353;28;20037;-64
2021/12/27 02:58:19;;;;;;;15.05;13.48;;;11.50;99.90;;;;;;5033319;28;20105;-65
2021/12/27 03:00:52;;;;;;;15.50;13.48;;;11.40;99.90;;;;;;5033408;28;20059;-65
2021/12/27 03:03:19;;;;;;;16.00;13.20;;;11.40;99.90;;;;;;5032588;28;20395;-65
2021/12/27 03:05:46;;;;;;;15.43;13.82;;;11.40;99.90;;;;;;5033247;28;20832;-64
2021/12/27 03:08:16;;;;;;;14.77;12.98;;;11.40;99.90;;;;;;5033227;28;20053;-64
2021/12/27 03:10:47;;;;;;;14.60;12.40;;;11.40;99.90;;;;;;5033617;28;20339;-67
2021/12/27 03:13:25;;;;;;;15.63;12.60;;;11.40;99.90;;;;;;5015796;28;20026;-67
2021/12/27 03:15:56;;;;;;;14.85;12.55;;;11.40;99.90;;;;;;5033324;28;20487;-65
2021/12/27 03:18:23;;;;;;;13.82;11.93;;;11.40;99.90;;;;;;5032868;28;20018;-64
2021/12/27 03:20:49;;;;;;;15.98;12.23;;;11.40;99.90;;;;;;5033262;28;20029;-65
2021/12/27 03:23:15;;;;;;;11.98;10.60;;;11.50;99.90;;;;;;5033073;28;20025;-65
2021/12/27 03:25:41;;;;;;;15.55;10.77;;;11.50;99.90;;;;;;5033049;28;20017;-65
2021/12/27 03:28:07;;;;;;;13.10;10.68;;;11.50;99.90;;;;;;5032892;28;20029;-65
2021/12/27 03:30:33;;;;;;;11.93;10.27;;;11.50;99.90;;;;;;5032898;28;20383;-65
2021/12/27 03:32:59;;;;;;;15.82;11.32;;;11.50;99.90;;;;;;5033058;28;20033;-64
2021/12/27 03:35:28;;;;;;;13.15;10.23;;;11.50;99.90;;;;;;5032863;28;20044;-66
2021/12/27 03:37:57;;;;;;;11.88;10.30;;;11.40;99.90;;;;;;5033036;28;20029;-66
2021/12/27 03:40:23;;;;;;;12.48;10.40;;;11.40;99.90;;;;;;5033141;28;20043;-69
2021/12/27 03:42:50;;;;;;;13.82;10.43;;;11.40;99.90;;;;;;5032906;28;20092;-65
2021/12/27 03:45:27;;;;;;;13.20;10.27;;;11.40;99.90;;;;;;5033083;28;20128;-65
2021/12/27 03:47:54;;;;;;;11.43;9.80;;;11.40;99.90;;;;;;5033007;28;20030;-66
2021/12/27 03:50:20;;;;;;;12.13;10.32;;;11.30;99.90;;;;;;5015239;28;20410;-64
2021/12/27 03:52:46;;;;;;;12.13;10.02;;;11.30;99.90;;;;;;5032694;28;20090;-65
2021/12/27 03:55:14;;;;;;;11.93;9.85;;;11.30;99.90;;;;;;5033792;28;20041;-81
2021/12/27 03:57:42;;;;;;;10.98;9.25;;;11.30;99.90;;;;;;5034286;28;20045;-74
2021/12/27 04:00:26;;;;;;;11.23;10.00;;;11.20;99.90;;;;;;5015140;28;20029;-66
2021/12/27 04:02:55;;;;;;;11.45;9.50;;;11.30;99.90;;;;;;5033277;28;20029;-65
2021/12/27 04:05:21;;;;;;;11.65;9.50;;;11.20;99.90;;;;;;5033493;28;20021;-80
2021/12/27 04:07:59;;;;;;;14.05;10.20;;;11.20;99.90;;;;;;5033515;28;20132;-81
2021/12/27 04:10:25;;;;;;;20.67;8.93;;;11.20;99.90;;;;;;5032559;28;20097;-65
2021/12/27 04:12:51;;;;;;;11.05;9.15;;;11.30;99.90;;;;;;5032789;28;20521;-64
2021/12/27 04:15:17;;;;;;;10.98;9.43;;;11.20;99.90;;;;;;5035812;28;20100;-66
2021/12/27 04:17:43;;;;;;;11.30;9.43;;;11.20;99.90;;;;;;5036270;28;20091;-65
2021/12/27 04:20:09;;;;;;;11.70;9.60;;;11.20;99.90;;;;;;5036365;28;20018;-64
2021/12/27 04:22:35;;;;;;;10.57;8.25;;;11.20;99.90;;;;;;5036292;28;20382;-65
2021/12/27 04:25:01;;;;;;;9.88;8.65;;;11.20;99.90;;;;;;5036115;28;20451;-65
2021/12/27 04:27:27;;;;;;;10.70;9.25;;;11.20;99.90;;;;;;5036617;28;20014;-65
2021/12/27 04:29:53;;;;;;;12.43;9.35;;;11.20;99.90;;;;;;5036236;28;20022;-65
2021/12/27 04:32:19;;;;;;;12.20;9.13;;;11.20;99.90;;;;;;5018708;28;20032;-67
2021/12/27 04:34:45;;;;;;;15.63;10.30;;;11.20;99.90;;;;;;5036134;28;20041;-65
2021/12/27 04:37:10;;;;;;;13.35;8.95;;;11.20;99.90;;;;;;5036074;28;20033;-70
2021/12/27 04:39:36;;;;;;;11.20;8.55;;;11.20;99.90;;;;;;5035958;28;20485;-64
2021/12/27 04:42:04;;;;;;;11.35;9.30;;;11.20;99.90;;;;;;5035884;28;20026;-64
2021/12/27 04:44:30;;;;;;;12.82;9.70;;;11.20;99.90;;;;;;5018321;28;20422;-64
2021/12/27 04:46:56;;;;;;;11.55;9.30;;;11.20;99.90;;;;;;5035781;28;20025;-65
2021/12/27 04:49:21;;;;;;;13.73;8.88;;;11.10;99.90;;;;;;5035687;28;20022;-64
2021/12/27 04:51:47;;;;;;;10.85;8.60;;;11.10;99.90;;;;;;5035556;28;20045;-65
2021/12/27 04:54:13;;;;;;;11.95;8.80;;;11.10;99.90;;;;;;5035918;28;20034;-65
2021/12/27 04:56:39;;;;;;;12.52;9.00;;;11.10;99.90;;;;;;5036168;28;20029;-67
2021/12/27 04:59:04;;;;;;;12.55;9.30;;;11.10;99.90;;;;;;5037139;28;20043;-68
2021/12/27 05:01:30;;;;;;;11.15;8.48;;;11.00;99.90;;;;;;5037508;28;20061;-79
2021/12/27 05:03:57;;;;;;;10.65;8.52;;;11.00;99.90;;;;;;5018664;28;20150;-78
2021/12/27 05:06:23;;;;;;;15.60;9.10;;;11.00;99.90;;;;;;5017735;28;20069;-64
2021/12/27 05:08:50;;;;;;;10.48;8.45;;;11.10;99.90;;;;;;5035288;28;20459;-64
2021/12/27 05:11:16;;;;;;;11.85;8.60;;;11.10;99.90;;;;;;5017794;28;20049;-64
2021/12/27 05:13:43;;;;;;;11.15;8.70;;;11.10;99.90;;;;;;5035324;28;20083;-64
2021/12/27 05:16:08;;;;;;;11.65;7.60;;;11.10;99.90;;;;;;5017337;28;20030;-66
2021/12/27 05:18:34;;;;;;;10.75;8.45;;;11.00;99.90;;;;;;5035120;28;20417;-64
2021/12/27 05:21:00;;;;;;;12.02;8.10;;;11.00;99.90;;;;;;5035084;28;20021;-65
2021/12/27 05:23:25;;;;;;;11.02;8.50;;;10.90;99.90;;;;;;5034804;28;20036;-65
2021/12/27 05:25:51;;;;;;;10.68;8.15;;;11.00;99.90;;;;;;5016373;28;20036;-67
2021/12/27 05:28:19;;;;;;;12.13;8.80;;;11.00;99.90;;;;;;5035096;28;20033;-65
2021/12/27 05:30:48;;;;;;;11.80;8.93;;;11.00;99.90;;;;;;5034844;28;20048;-72
2021/12/27 05:33:15;;;;;;;10.30;8.13;;;11.00;99.90;;;;;;5035340;28;20032;-64
2021/12/27 05:35:42;;;;;;;12.05;8.68;;;11.00;99.90;;;;;;5034496;28;20478;-64
2021/12/27 05:38:08;;;;;;;11.23;8.20;;;11.00;99.90;;;;;;5034645;28;20043;-64
2021/12/27 05:40:34;;;;;;;12.55;9.63;;;11.00;99.90;;;;;;5034732;28;20017;-67
2021/12/27 05:43:00;;;;;;;10.85;8.75;;;10.90;99.90;;;;;;5034824;28;20079;-68
2021/12/27 05:45:27;;;;;;;11.20;8.40;;;10.90;99.90;;;;;;5035281;28;20029;-67
2021/12/27 05:47:55;;;;;;;10.65;8.45;;;10.90;99.90;;;;;;5034971;28;20079;-64
2021/12/27 05:50:21;;;;;;;13.95;8.27;;;10.90;99.90;;;;;;5034988;28;20064;-65
2021/12/27 05:52:47;;;;;;;11.52;9.18;;;10.90;99.90;;;;;;5035363;28;20041;-65
2021/12/27 05:55:13;;;;;;;12.63;8.98;;;10.90;99.90;;;;;;5034974;28;20060;-65
2021/12/27 05:57:39;;;;;;;12.18;8.60;;;10.90;99.90;;;;;;5034708;28;20095;-65
2021/12/27 06:00:09;;;;;;;11.55;9.02;;;10.90;99.90;;;;;;5034342;28;20463;-65
2021/12/27 06:02:35;;;;;;;14.07;9.55;;;10.90;99.90;;;;;;5016806;28;20025;-75
2021/12/27 06:05:01;;;;;;;11.77;9.57;;;10.90;99.90;;;;;;5034442;28;20382;-69
2021/12/27 06:07:26;;;;;;;17.35;13.38;;;10.90;99.90;;;;;;5034248;28;20049;-65
2021/12/27 06:09:52;;;;;;;15.27;11.32;;;10.80;99.90;;;;;;5034543;28;20106;-69
2021/12/27 06:12:18;;;;;;;11.60;9.35;;;10.80;99.90;;;;;;5034326;28;20026;-64
2021/12/27 06:14:44;;;;;;;12.63;8.70;;;10.90;99.90;;;;;;5034053;28;20040;-65
2021/12/27 06:17:10;;;;;;;14.05;9.52;;;10.80;99.90;;;;;;5034342;28;20037;-66
2021/12/27 06:19:36;;;;;;;11.45;8.77;;;10.80;99.90;;;;;;5033868;28;20033;-65
2021/12/27 06:22:03;;;;;;;11.25;8.60;;;10.70;99.90;;;;;;5034240;28;20029;-69
2021/12/27 06:24:29;;;;;;;12.85;9.25;;;10.70;99.90;;;;;;5016779;28;20089;-67
2021/12/27 06:26:54;;;;;;;12.07;9.48;;;10.60;99.90;;;;;;5035351;28;20056;-69
2021/12/27 06:29:20;;;;;;;10.98;8.52;;;10.60;99.90;;;;;;5034525;28;20033;-64
2021/12/27 06:31:46;;;;;;;10.93;8.55;;;10.50;99.90;;;;;;5034276;28;20112;-76
2021/12/27 06:34:13;;;;;;;12.02;8.63;;;10.60;99.90;;;;;;5033756;28;20360;-72
2021/12/27 06:36:39;;;;;;;10.50;8.52;;;10.60;99.90;;;;;;5033444;28;20544;-69
2021/12/27 06:39:05;;;;;;;9.77;7.82;;;10.60;99.90;;;;;;5033556;28;20030;-65
2021/12/27 06:41:31;;;;;;;10.95;7.80;;;10.60;99.90;;;;;;5033510;28;20025;-65
2021/12/27 06:43:57;;;;;;;9.93;7.55;;;10.60;99.90;;;;;;5033678;28;20057;-64
2021/12/27 06:46:23;;;;;;;9.50;7.80;;;10.60;99.90;;;;;;5033522;28;20091;-65
2021/12/27 06:48:49;;;;;;;12.27;8.85;;;10.60;99.90;;;;;;5033215;28;20026;-69
2021/12/27 06:51:15;;;;;;;9.32;7.63;;;10.50;99.90;;;;;;5033063;28;20129;-66
2021/12/27 06:53:41;;;;;;;11.38;8.15;;;10.50;99.90;;;;;;5033465;28;20087;-66
2021/12/27 06:56:08;;;;;;;11.05;7.88;;;10.50;99.90;;;;;;5033166;28;20060;-69
2021/12/27 06:58:34;;;;;;;9.85;7.72;;;10.50;99.90;;;;;;5033103;28;20021;-67
2021/12/27 07:01:01;;;;;;;10.52;7.40;;;10.50;99.90;;;;;;5033319;28;20026;-65
2021/12/27 07:03:28;;;;;;;10.35;7.40;;;10.60;99.90;;;;;;5015697;28;20030;-66
2021/12/27 07:05:54;;;;;;;9.88;8.20;;;10.60;99.90;;;;;;5033803;28;20025;-69
2021/12/27 07:08:22;;;;;;;11.10;8.00;;;10.60;99.90;;;;;;5033742;28;20022;-80
2021/12/27 07:10:48;;;;;;;9.43;7.20;;;10.60;99.90;;;;;;5034251;28;20474;-81
2021/12/27 07:13:15;;;;;;;12.63;8.15;;;10.70;99.90;;;;;;5034080;28;20021;-80
2021/12/27 07:15:42;;;;;;;10.23;7.68;;;10.80;99.90;;;;;;5033301;28;20033;-65
2021/12/27 07:18:12;;;;;;;10.50;7.75;;;10.80;99.90;;;;;;5016239;28;20018;-81
2021/12/27 07:20:39;;;;;;;10.52;7.80;;;10.90;99.90;;;;;;5033426;28;20062;-75
2021/12/27 07:23:09;;;;;;;11.80;7.75;;;10.90;99.90;;;;;;5034026;28;20103;-80
2021/12/27 07:25:35;;;;;;;11.43;7.45;;;11.00;99.90;;;;;;5032518;28;20065;-64
2021/12/27 07:28:01;;;;;;;9.63;7.88;;;11.10;99.90;;;;;;5033128;28;20022;-76
2021/12/27 07:30:29;;;;;;;15.90;11.30;;;11.10;99.90;;;;;;5033365;28;20048;-71
2021/12/27 07:32:55;;;;;;;11.55;7.82;;;11.10;99.90;;;;;;5033074;28;20505;-69
2021/12/27 07:35:21;;;;;;;13.23;8.30;;;11.20;99.90;;;;;;5015861;28;20030;-64
2021/12/27 07:37:47;;;;;;;11.38;8.82;;;11.10;99.90;;;;;;5032717;28;20051;-66
2021/12/27 07:40:14;;;;;;;10.13;8.15;;;11.10;99.90;;;;;;5032842;28;20470;-64
2021/12/27 07:42:41;;;;;;;14.45;7.70;;;11.20;99.90;;;;;;5033136;28;20029;-72
2021/12/27 07:45:09;;;;;;;12.32;8.10;;;11.20;99.90;;;;;;5033357;28;20485;-67
2021/12/27 07:47:36;;;;;;;10.00;7.55;;;11.10;99.90;;;;;;5033172;28;20021;-71
2021/12/27 07:50:04;;;;;;;9.43;7.28;;;11.10;99.90;;;;;;5036425;28;20395;-76
2021/12/27 07:52:30;;;;;;;12.75;8.23;;;11.20;99.90;;;;;;5037738;28;20022;-66
2021/12/27 07:54:56;;;;;;;9.25;7.40;;;11.20;99.90;;;;;;5036873;28;20060;-66
2021/12/27 07:57:21;;;;;;;9.85;7.22;;;11.10;99.90;;;;;;5036631;28;20075;-68
2021/12/27 07:59:47;;;;;;;10.43;7.57;;;11.10;99.90;;;;;;5036345;28;20025;-64
2021/12/27 08:02:14;;;;;;;10.70;7.78;;;11.10;99.90;;;;;;5036524;28;20505;-68
2021/12/27 08:04:41;;;;;;;12.35;8.10;;;11.20;99.90;;;;;;5036460;28;20026;-65
2021/12/27 08:07:07;;;;;;;10.68;7.40;;;11.20;99.90;;;;;;5036377;28;20017;-65
2021/12/27 08:09:33;;;;;;;11.32;7.45;;;11.20;99.90;;;;;;5018700;28;20031;-66
2021/12/27 08:12:01;;;;;;;12.23;7.32;;;11.20;99.90;;;;;;5036652;28;20021;-65
2021/12/27 08:14:26;;;;;;;12.45;7.72;;;11.20;99.90;;;;;;5018474;28;20037;-68
2021/12/27 08:16:53;;;;;;;11.85;8.65;;;11.20;99.90;;;;;;5036487;28;20029;-68
2021/12/27 08:19:20;;;;;;;11.65;7.30;;;11.20;99.90;;;;;;5036136;28;20122;-75
2021/12/27 08:21:45;;;;;;;14.85;7.90;;;11.30;99.90;;;;;;5035174;28;20041;-83
2021/12/27 08:24:11;;;;;;;9.75;7.45;;;11.30;99.90;;;;;;5019315;28;20025;-76
2021/12/27 08:26:38;;;;;;;10.68;7.72;;;11.30;99.90;;;;;;5019227;28;20037;-71
2021/12/27 08:29:06;;;;;;;11.27;7.82;;;11.40;99.90;;;;;;5036610;28;20116;-78
2021/12/27 08:31:33;;;;;;;13.13;8.45;;;11.40;99.90;;;;;;5036382;28;20186;-79
2021/12/27 08:33:58;;;;;;;15.32;7.25;;;11.40;99.90;;;;;;5036682;28;20025;-80
2021/12/27 08:36:24;;;;;;;13.13;7.82;;;11.50;99.90;;;;;;5036799;28;20413;-79
2021/12/27 08:38:52;;;;;;;12.50;8.10;;;11.60;99.90;;;;;;5036157;28;20026;-75
2021/12/27 08:41:19;;;;;;;12.35;7.80;;;11.60;99.90;;;;;;5035571;28;20479;-66
2021/12/27 08:43:45;;;;;;;13.38;7.82;;;11.70;99.90;;;;;;5035550;28;20431;-67
2021/12/27 08:46:13;;;;;;;9.20;6.95;;;11.70;99.90;;;;;;5035430;28;20433;-66
2021/12/27 08:48:40;;;;;;;14.85;8.15;;;11.70;99.90;;;;;;5017719;28;20053;-68
2021/12/27 08:51:06;;;;;;;10.65;6.88;;;11.80;99.90;;;;;;5034866;28;20072;-72
2021/12/27 08:53:32;;;;;;;10.88;7.38;;;11.80;99.90;;;;;;5035320;28;20022;-73
2021/12/27 08:55:57;;;;;;;13.15;7.90;;;11.80;99.90;;;;;;5017274;28;20048;-66
2021/12/27 08:58:23;;;;;;;11.80;6.93;;;11.80;99.90;;;;;;5034688;28;20040;-65
2021/12/27 09:00:49;;;;;;;11.15;7.45;;;11.90;99.90;;;;;;5033853;28;20078;-70
2021/12/27 09:03:15;;;;;;;10.50;7.47;;;12.00;99.90;;;;;;5035984;28;20033;-71
2021/12/27 09:05:43;;;;;;;11.70;7.82;;;12.10;99.90;;;;;;5035962;28;20033;-68
2021/12/27 09:08:09;;;;;;;14.38;9.80;;;12.00;99.90;;;;;;5035124;28;20017;-66
2021/12/27 09:10:35;;;;;;;12.25;8.93;;;12.10;99.90;;;;;;5017043;28;20025;-66
2021/12/27 09:13:01;;;;;;;14.25;10.40;;;12.20;99.90;;;;;;5034746;28;20033;-66
2021/12/27 09:15:31;;;;;;;14.63;9.10;;;12.40;99.90;;;;;;5035113;28;20033;-68
2021/12/27 09:17:57;;;;;;;14.73;8.63;;;12.50;99.90;;;;;;5034548;28;20030;-65
2021/12/27 09:20:25;;;;;;;12.02;8.35;;;12.60;99.90;;;;;;5034647;28;20025;-67
2021/12/27 09:22:51;;;;;;;12.00;8.73;;;12.70;99.90;;;;;;5034618;28;20033;-67
2021/12/27 09:25:17;;;;;;;13.38;7.97;;;12.70;99.90;;;;;;5034614;28;20033;-65
2021/12/27 09:27:43;;;;;;;11.90;7.75;;;12.80;99.90;;;;;;5034450;28;20083;-66
2021/12/27 09:30:09;;;;;;;11.55;7.47;;;12.90;99.90;;;;;;5016677;28;20490;-65
2021/12/27 09:32:35;;;;;;;9.25;7.55;;;12.90;99.90;;;;;;5034422;28;20014;-65
2021/12/27 09:35:01;;;;;;;11.43;8.27;;;13.00;99.90;;;;;;5034432;28;20032;-65
2021/12/27 09:37:27;;;;;;;13.50;8.05;;;13.00;99.90;;;;;;5034343;28;20033;-69
2021/12/27 09:39:53;;;;;;;16.73;7.63;;;13.10;99.90;;;;;;5034416;28;20034;-69
2021/12/27 09:42:26;;;;;;;13.40;7.88;;;13.20;99.90;;;;;;5034356;28;20053;-72
2021/12/27 09:44:57;;;;;;;12.93;8.00;;;13.30;99.90;;;;;;5034307;28;20462;-70
2021/12/27 09:47:23;;;;;;;12.25;7.70;;;13.40;99.90;;;;;;5034563;28;20025;-68
2021/12/27 09:49:50;;;;;;;10.85;7.38;;;13.40;99.90;;;;;;5033935;28;20028;-67
2021/12/27 09:52:16;;;;;;;13.95;7.72;;;13.50;99.90;;;;;;5034650;28;20506;-69
2021/12/27 09:54:46;;;;;;;11.27;7.80;;;13.60;99.90;;;;;;5034630;28;20029;-77
2021/12/27 09:57:13;;;;;;;10.05;7.90;;;13.60;99.90;;;;;;5034816;28;20114;-80
2021/12/27 09:59:40;;;;;;;13.15;7.78;;;13.70;99.90;;;;;;5034210;28;20025;-73
2021/12/27 10:02:08;;;;;;;11.02;8.25;;;13.70;99.90;;;;;;5034056;28;20049;-78
2021/12/27 10:04:34;;;;;;;10.07;7.88;;;13.80;99.90;;;;;;5034647;28;20061;-73
2021/12/27 10:07:00;;;;;;;10.60;7.65;;;13.90;99.90;;;;;;5033416;28;20160;-67
2021/12/27 10:09:26;;;;;;;12.90;8.27;;;14.00;99.90;;;;;;5033645;28;20041;-68
2021/12/27 10:11:53;;;;;;;12.07;7.50;;;14.10;99.90;;;;;;5034099;28;20025;-81
2021/12/27 10:14:20;;;;;;;13.98;8.30;;;14.10;99.90;;;;;;5034166;28;20095;-78
2021/12/27 10:17:13;;;;;;;12.70;8.27;;;14.10;99.90;;;;;;5034690;28;20036;-77
2021/12/27 10:19:39;;;;;;;15.30;8.25;;;14.20;99.90;;;;;;5034731;28;20021;-77
2021/12/27 10:22:11;;;;;;;13.68;7.72;;;14.30;99.90;;;;;;5035160;28;20533;-75
2021/12/27 10:24:39;;;;;;;12.65;9.00;;;14.40;99.90;;;;;;5017676;28;20026;-79
2021/12/27 10:27:05;;;;;;;12.82;8.30;;;14.40;99.90;;;;;;5035289;28;20030;-83
2021/12/27 10:29:35;;;;;;;12.00;8.52;;;14.40;99.90;;;;;;5017076;28;20029;-70
2021/12/27 10:32:10;;;;;;;13.90;8.75;;;14.40;99.90;;;;;;5035008;28;20060;-82
2021/12/27 10:35:05;;;;;;;12.07;8.70;;;14.40;99.90;;;;;;5036117;28;20106;-77
2021/12/27 10:37:37;;;;;;;14.40;8.88;;;14.40;99.90;;;;;;5033146;28;20113;-79
2021/12/27 10:40:09;;;;;;;13.65;8.80;;;14.50;99.90;;;;;;5017225;28;20033;-77
2021/12/27 10:42:50;;;;;;;14.60;8.90;;;14.60;99.90;;;;;;5034493;28;20479;-78
2021/12/27 10:45:21;;;;;;;14.05;8.52;;;14.60;99.90;;;;;;5034312;28;20124;-80
2021/12/27 10:48:02;;;;;;;13.68;8.50;;;14.70;99.90;;;;;;5017857;28;20025;-74
2021/12/27 10:50:31;;;;;;;10.95;7.82;;;14.80;99.90;;;;;;5035107;28;20060;-77
2021/12/27 10:53:00;;;;;;;14.38;9.82;;;14.90;99.90;;;;;;5034795;28;20025;-69
2021/12/27 10:55:38;;;;;;;14.13;9.30;;;15.00;99.90;;;;;;5033934;28;20033;-74
2021/12/27 10:58:28;;;;;;;12.52;8.38;;;15.20;99.90;;;;;;5033652;28;20103;-73
2021/12/27 11:01:07;;;;;;;14.52;8.45;;;15.40;99.60;;;;;;5032825;28;20026;-69
2021/12/27 11:03:43;;;;;;;14.13;8.52;;;15.40;99.40;;;;;;5032999;28;20037;-66
2021/12/27 11:06:11;;;;;;;14.48;8.52;;;15.40;99.30;;;;;;5033310;28;20034;-66
2021/12/27 11:08:45;;;;;;;15.10;9.65;;;15.30;99.30;;;;;;5032551;28;20108;-66
2021/12/27 11:11:17;;;;;;;14.50;9.27;;;15.40;99.50;;;;;;5032710;28;20057;-66
2021/12/27 11:13:44;;;;;;;14.90;9.55;;;15.40;99.50;;;;;;5033756;28;20057;-84
2021/12/27 11:16:11;;;;;;;16.45;9.02;;;15.50;99.40;;;;;;5016378;28;20109;-83
2021/12/27 11:18:38;;;;;;;13.80;9.05;;;15.50;99.40;;;;;;5016247;28;20049;-83
2021/12/27 11:21:24;;;;;;;14.82;9.60;;;15.50;99.50;;;;;;5033906;28;20029;-82
2021/12/27 11:23:54;;;;;;;17.83;8.60;;;15.60;99.60;;;;;;5033556;28;20120;-65
2021/12/27 11:26:27;;;;;;;12.00;8.80;;;15.60;99.70;;;;;;5033227;28;20026;-73
2021/12/27 11:29:14;;;;;;;12.73;8.02;;;15.70;99.60;;;;;;5033880;28;20032;-78
2021/12/27 11:31:44;;;;;;;14.50;8.43;;;15.80;99.80;;;;;;5033324;28;20100;-75
2021/12/27 11:34:17;;;;;;;17.80;9.02;;;15.90;99.50;;;;;;5033521;28;20033;-82
2021/12/27 11:37:01;;;;;;;17.33;8.60;;;16.00;99.50;;;;;;5033798;28;20029;-80
2021/12/27 11:39:38;;;;;;;16.23;8.63;;;16.20;99.40;;;;;;5033530;28;20021;-82
2021/12/27 11:42:12;;;;;;;17.63;8.30;;;16.30;99.00;;;;;;5016436;28;20391;-82
2021/12/27 11:44:45;;;;;;;16.92;9.07;;;16.30;99.00;;;;;;5033096;28;20037;-73
2021/12/27 11:47:34;;;;;;;15.30;8.65;;;16.30;98.90;;;;;;5033047;28;20044;-75
2021/12/27 11:50:06;;;;;;;15.18;8.68;;;16.40;98.70;;;;;;5033599;28;20037;-69
2021/12/27 11:52:45;;;;;;;15.13;8.48;;;16.50;98.60;;;;;;5032693;28;20061;-69
2021/12/27 11:55:25;;;;;;;17.75;9.55;;;16.50;98.60;;;;;;5032360;28;20025;-66
2021/12/27 11:57:55;;;;;;;15.48;8.23;;;16.50;98.60;;;;;;5032331;28;20033;-66
2021/12/27 12:00:24;;;;;;;15.57;8.10;;;16.40;98.70;;;;;;5031933;28;20022;-65
2021/12/27 12:03:02;;;;;;;15.00;7.78;;;16.50;98.80;;;;;;5032389;28;20037;-66
2021/12/27 12:05:44;;;;;;;14.80;9.18;;;16.40;98.90;;;;;;5032377;28;20018;-66
2021/12/27 12:08:13;;;;;;;17.48;8.85;;;16.50;98.90;;;;;;5031990;28;20025;-65
2021/12/27 12:10:59;;;;;;;14.35;7.45;;;16.50;98.90;;;;;;5032124;28;20030;-66
2021/12/27 12:13:28;;;;;;;15.27;7.90;;;16.50;98.80;;;;;;5014301;28;20493;-68
2021/12/27 12:16:02;;;;;;;16.02;8.15;;;16.50;98.70;;;;;;5031842;28;20029;-71
2021/12/27 12:18:29;;;;;;;18.85;8.48;;;16.50;98.80;;;;;;5032315;28;20112;-66
2021/12/27 12:20:56;;;;;;;16.15;8.38;;;16.50;98.80;;;;;;5032129;28;20037;-67
2021/12/27 12:23:22;;;;;;;15.65;7.95;;;16.60;98.80;;;;;;5032207;28;20463;-67
2021/12/27 12:25:58;;;;;;;16.27;8.68;;;16.60;98.80;;;;;;5032120;28;20026;-66
2021/12/27 12:28:34;;;;;;;15.23;7.18;;;16.70;98.70;;;;;;5031847;28;20163;-66
2021/12/27 12:31:00;;;;;;;16.40;7.78;;;16.60;98.70;;;;;;5031821;28;20053;-66
2021/12/27 12:33:30;;;;;;;16.67;8.27;;;16.70;98.70;;;;;;5032104;28;20060;-65
2021/12/27 12:36:03;;;;;;;13.18;6.78;;;16.60;98.70;;;;;;5034787;28;20041;-65
2021/12/27 12:38:33;;;;;;;14.80;6.60;;;16.70;98.80;;;;;;5035779;28;20048;-73
2021/12/27 12:40:59;;;;;;;14.60;5.38;;;16.60;98.90;;;;;;5035787;28;20033;-68